Aérodrome :
LOGIN :

S'inscrire | Disclaimer

   EN    FR    IT 

 










Légende :    VFR   VFR Marginal   IFR   IFR Intensif   IFR Très Intensif
Visi : 
Plafond : 
>= 8 km
>= 3000ft
5 à 8 km
1000 à 3000 ft
1500m à 5 km
500 à 1000 ft
800 à 1500m
200 à 500 ft
< 800m
< 200 ft
Symboles :   Orages  Brouillard  Fortes neiges  Fortes précipitations  Vent > 20 kt
SIGMETs :   Divers  Orages  Givrage  Turbulence  Onde Orograph.  Cendres Volcan.






- Altitude de l'aérodrome : 267 ft


EGDR - Culdrose Navy

DERNIER METAR :
  • 261724Z 24007KT 9999 VCSH FEW012 SCT060 06/03 Q1011 TEMPO 8000 -RA BKN010 RMK BLU TEMPO WHT

METARs EXPIRÉS :
  • 261650Z 26008KT 9999 VCSH FEW014 SCT060 06/03 Q1011 TEMPO 8000 -SHRA SCT020 RMK BLU TEMPO WHT
  • 261626Z 25007KT 9999 FEW014 07/03 Q1011 TEMPO 8000 -SHRA SCT020 RMK BLU TEMPO WHT
  • 261550Z 27013KT 9999 VCSH FEW014 SCT300 07/01 Q1011 TEMPO 8000 -SHRA SCT020 RMK BLU TEMPO WHT
  • 261527Z 27013KT 9999 VCSH FEW014 SCT025 08/02 Q1011 TEMPO 8000 -SHRA SCT020 RMK BLU TEMPO WHT
  • 261450Z 27014KT 9999 VCSH FEW014 SCT060 07/02 Q1012 TEMPO 8000 -SHRA SCT020 RMK BLU TEMPO WHT

TAF TAF EGDR
Valide du 26 à 15h jusqu'au 27 à 00h UTC


261342Z 2615/2624 30015G25KT 9999 SCT030
TEMPO 2615/2617 8000 -SHRA SCT020
BECMG 2616/2618 27015G25KT
BECMG 2618/2620 22010KT 8000 -RA BKN010 OVC020
BECMG 2620/2622 4000 RA BKN006
PROB30
TEMPO 2622/2624 3000 RADZ BKN004



MET'MAP, la Météo Aéronautique d'un coup d'oeil ! - Copyright ORBIFLY Décembre 2007 - Disclaimer

ORBIFLY MET'MAP TEAM :

Programmation & Développement : Alexandra Zaïnal
Sur une idée originale de : Baudouin d'Aumeries
Assistance à la programmation : Marc-Olivier Méhu
Soutien technique & logistique : Manuel Goepfert

Contact : metmap@orbifly.com




SOURCES & CREDITS :

   NOAA